Авиационная погода в Бресте

СКИДКИ НА СМАРТФОНЫ!

Регион: 
Погода METAR: 
UMBB 181200Z 03002MPS 9999 SCT047 29/18 Q1014 NOSIG
Время наблюдения
2022-08-18T12:00:00Z
Температура C
29.0
Точка росы
18.0
Направление ветра
30
Скорость ветра (узлы)
4
Метео видимость
6.21
Облачность
SCT
Нижняя граница облачности (футы)
4700
Явления погоды
Условия полета
VFR
Аэропорт подробнее: 
SCT – разбросанная отдельная облачность;

Скидки на навигаторы!